This is the latest recevied weather packets stored in our database for station/object OH3FZQ-L1. If no packets are shown the sender has not sent any weather packets the latest 10 day(s).
| Time | Temp. | Humidity | Pressure | Rain* | Wind** | Luminosity | Snow |
|---|---|---|---|---|---|---|---|
| 1777593292 | 25° C | 40% | 1013.3 hPa | - | - | - | - |
| 1777592392 | 25° C | 40% | 1013.3 hPa | - | - | - | - |
| 1777591492 | 25° C | 40% | 1013.2 hPa | - | - | - | - |
| 1777590592 | 25.56° C | 40% | 1013.3 hPa | - | - | - | - |
| 1777589692 | 25.56° C | 40% | 1013.3 hPa | - | - | - | - |
| 1777588792 | 26.11° C | 40% | 1013.4 hPa | - | - | - | - |
| 1777587891 | 26.11° C | 40% | 1013.4 hPa | - | - | - | - |
| 1777586991 | 26.67° C | 38% | 1013.4 hPa | - | - | - | - |
| 1777586091 | 26.67° C | 39% | 1013.4 hPa | - | - | - | - |
| 1777585193 | 27.22° C | 38% | 1013.4 hPa | - | - | - | - |
| 1777584293 | 27.22° C | 38% | 1013.4 hPa | - | - | - | - |
| 1777583393 | 27.78° C | 38% | 1013.5 hPa | - | - | - | - |
| 1777582493 | 28.33° C | 38% | 1013.4 hPa | - | - | - | - |
| 1777581593 | 28.89° C | 37% | 1013.4 hPa | - | - | - | - |
| 1777580693 | 29.44° C | 37% | 1013.2 hPa | - | - | - | - |
| 1777579793 | 30° C | 36% | 1013.2 hPa | - | - | - | - |
| 1777578893 | 31.11° C | 35% | 1013 hPa | - | - | - | - |
| 1777577993 | 31.67° C | 35% | 1013 hPa | - | - | - | - |
| 1777577092 | 32.22° C | 35% | 1012.8 hPa | - | - | - | - |
| 1777576192 | 32.78° C | 34% | 1012.8 hPa | - | - | - | - |
| 1777575292 | 31.67° C | 37% | 1012.9 hPa | - | - | - | - |
| 1777574392 | 28.33° C | 42% | 1012.8 hPa | - | - | - | - |
| 1777573492 | 23.33° C | 44% | 1012.7 hPa | - | - | - | - |
| 1777572592 | 23.33° C | 45% | 1012.6 hPa | - | - | - | - |
| 1777571692 | 23.33° C | 44% | 1012.4 hPa | - | - | - | - |
* Rain since midnight (hover to see other rain measurements)
** Current wind speed in m/s (hover to see current wind gust speed)